createdAt,value
2023-10-10T00:01:07.084Z,2.47
2023-10-10T00:05:13.440Z,2.38
2023-10-10T00:09:16.820Z,3.47
2023-10-10T00:13:21.064Z,2.70
2023-10-10T00:17:23.501Z,2.22
2023-10-10T00:21:25.474Z,2.90
2023-10-10T00:25:31.752Z,3.05
2023-10-10T00:29:34.576Z,2.33
2023-10-10T00:33:39.545Z,2.25
2023-10-10T00:37:41.775Z,1.80
2023-10-10T00:41:50.582Z,2.50
2023-10-10T00:45:58.767Z,1.92
2023-10-10T00:50:00.640Z,1.90
2023-10-10T00:54:27.231Z,2.65
2023-10-10T00:58:37.561Z,1.90
2023-10-10T01:02:39.629Z,2.20
2023-10-10T01:06:42.291Z,2.10
2023-10-10T01:10:47.891Z,2.08
2023-10-10T01:14:57.936Z,1.80
2023-10-10T01:18:59.781Z,2.00
2023-10-10T01:23:03.856Z,1.98
2023-10-10T01:27:17.140Z,1.90
2023-10-10T01:31:19.344Z,1.90
2023-10-10T01:35:25.040Z,1.90
2023-10-10T01:39:43.112Z,2.10
2023-10-10T01:47:58.660Z,2.10
2023-10-10T01:52:01.235Z,2.10
2023-10-10T01:56:08.269Z,1.77
2023-10-10T02:00:27.675Z,1.70
2023-10-10T02:04:36.569Z,1.95
2023-10-10T02:08:39.633Z,2.22
2023-10-10T02:12:45.859Z,1.85
2023-10-10T02:16:49.300Z,1.88
2023-10-10T02:20:52.320Z,1.90
2023-10-10T02:25:13.028Z,1.73
2023-10-10T02:29:19.496Z,1.92
2023-10-10T02:33:24.639Z,1.93
2023-10-10T02:37:26.943Z,1.70
2023-10-10T02:41:39.770Z,2.17
2023-10-10T02:45:46.112Z,2.03
2023-10-10T02:49:49.313Z,2.43
2023-10-10T02:53:51.646Z,1.90
2023-10-10T02:57:55.098Z,1.90
2023-10-10T03:02:10.961Z,1.83
2023-10-10T03:06:13.388Z,2.10
2023-10-10T03:10:16.011Z,2.30
2023-10-10T03:14:27.088Z,2.13
2023-10-10T03:18:30.543Z,2.17
2023-10-10T03:22:53.836Z,2.13
2023-10-10T03:26:58.853Z,1.83
2023-10-10T03:31:12.230Z,2.20
2023-10-10T03:35:34.721Z,1.65
2023-10-10T03:39:50.943Z,1.88
2023-10-10T03:44:13.466Z,1.90
2023-10-10T03:48:35.990Z,2.00
2023-10-10T03:52:56.449Z,1.90
2023-10-10T03:57:17.336Z,2.08
2023-10-10T04:01:37.787Z,2.00
2023-10-10T04:05:59.235Z,1.95
2023-10-10T04:10:25.100Z,1.88
2023-10-10T04:14:47.468Z,2.00
2023-10-10T04:19:07.942Z,2.00
2023-10-10T04:23:28.944Z,2.13
2023-10-10T04:27:50.134Z,2.30
2023-10-10T04:32:11.222Z,1.98
2023-10-10T04:36:33.481Z,2.47
2023-10-10T04:40:55.857Z,2.35
2023-10-10T04:45:27.504Z,2.40
2023-10-10T04:49:49.373Z,2.17
2023-10-10T04:54:10.182Z,2.08
2023-10-10T04:58:30.781Z,2.13
2023-10-10T05:02:51.640Z,2.33
2023-10-10T05:07:13.104Z,2.10
2023-10-10T05:11:37.700Z,2.00
2023-10-10T05:15:58.274Z,1.92
2023-10-10T05:20:19.442Z,2.20
2023-10-10T05:24:25.425Z,2.33
2023-10-10T05:28:31.956Z,2.07
2023-10-10T05:32:35.042Z,2.33
2023-10-10T05:36:38.162Z,1.80
2023-10-10T05:40:41.467Z,1.92
2023-10-10T05:44:45.434Z,1.63
2023-10-10T05:48:48.200Z,2.85
2023-10-10T05:52:50.559Z,3.83
2023-10-10T05:56:53.117Z,4.20
2023-10-10T06:00:56.148Z,4.30
2023-10-10T06:04:59.196Z,3.22
2023-10-10T06:09:01.897Z,2.90
2023-10-10T06:13:08.493Z,3.20
2023-10-10T06:17:12.025Z,2.63
2023-10-10T06:21:19.610Z,2.58
2023-10-10T06:25:23.173Z,2.88
2023-10-10T06:29:25.854Z,2.75
2023-10-10T06:33:31.296Z,3.00
2023-10-10T06:37:36.782Z,2.70
2023-10-10T06:41:43.413Z,3.08
2023-10-10T06:45:53.668Z,3.20
2023-10-10T06:49:58.438Z,3.10
2023-10-10T06:54:04.785Z,3.15
2023-10-10T06:58:07.554Z,3.33
2023-10-10T07:02:21.477Z,3.53
2023-10-10T07:06:23.700Z,3.40
2023-10-10T07:10:35.107Z,2.92
2023-10-10T07:14:48.614Z,2.53
2023-10-10T07:18:57.372Z,2.92
2023-10-10T07:23:01.221Z,3.15
2023-10-10T07:27:12.724Z,3.90
2023-10-10T07:31:19.924Z,3.75
2023-10-10T07:35:27.000Z,3.08
2023-10-10T07:39:36.473Z,3.22
2023-10-10T07:43:39.248Z,3.13
2023-10-10T07:48:00.757Z,2.78
2023-10-10T07:52:06.214Z,3.53
2023-10-10T07:56:08.197Z,3.42
2023-10-10T08:00:18.459Z,3.55
2023-10-10T08:08:27.192Z,3.90
2023-10-10T08:12:31.294Z,3.50
2023-10-10T08:16:35.713Z,3.28
2023-10-10T08:20:43.531Z,2.95
2023-10-10T08:24:45.557Z,3.70
2023-10-10T08:28:48.617Z,2.90
2023-10-10T08:32:50.496Z,3.05
2023-10-10T08:36:53.223Z,2.92
2023-10-10T08:41:04.429Z,3.60
2023-10-10T08:45:07.500Z,3.22
2023-10-10T08:49:10.198Z,3.00
2023-10-10T08:53:13.812Z,3.17
2023-10-10T08:57:25.849Z,3.60
2023-10-10T09:01:34.447Z,3.60
2023-10-10T09:05:37.664Z,3.25
2023-10-10T09:09:41.608Z,2.88
2023-10-10T09:13:53.146Z,2.97
2023-10-10T09:18:14.082Z,3.53
2023-10-10T09:22:31.819Z,3.30
2023-10-10T09:26:37.917Z,3.80
2023-10-10T09:31:03.247Z,3.53
2023-10-10T09:35:09.945Z,3.78
2023-10-10T09:39:37.691Z,4.13
2023-10-10T09:44:20.406Z,2.90
2023-10-10T09:48:51.828Z,2.83
2023-10-10T09:53:00.647Z,2.75
2023-10-10T09:57:09.527Z,3.92
2023-10-10T10:01:24.019Z,3.40
2023-10-10T10:05:30.145Z,2.90
2023-10-10T10:09:58.526Z,2.80
2023-10-10T10:14:17.020Z,3.30
2023-10-10T10:18:30.736Z,3.10
2023-10-10T10:22:33.399Z,2.33
2023-10-10T10:26:43.628Z,2.63
2023-10-10T10:30:51.684Z,3.05
2023-10-10T10:34:57.856Z,2.47
2023-10-10T10:39:24.944Z,2.30
2023-10-10T10:43:40.123Z,2.15
2023-10-10T10:47:47.261Z,2.45
2023-10-10T10:56:14.398Z,2.70
2023-10-10T11:00:42.236Z,4.10
2023-10-10T11:04:51.740Z,2.72
2023-10-10T11:08:58.111Z,3.08
2023-10-10T11:13:09.028Z,3.13
2023-10-10T11:17:19.110Z,2.40
2023-10-10T11:21:28.918Z,2.55
2023-10-10T11:25:42.714Z,2.45
2023-10-10T11:29:46.866Z,2.90
2023-10-10T11:34:11.176Z,2.78
2023-10-10T11:38:18.117Z,3.97
2023-10-10T11:42:30.421Z,3.30
2023-10-10T11:46:32.433Z,2.88
2023-10-10T11:50:58.305Z,3.10
2023-10-10T11:55:01.703Z,2.80
2023-10-10T11:59:15.439Z,2.92
2023-10-10T12:03:20.717Z,2.92
2023-10-10T12:07:25.595Z,3.50
2023-10-10T12:11:27.870Z,3.03
2023-10-10T12:15:29.905Z,3.00
2023-10-10T12:19:44.818Z,3.53
2023-10-10T12:23:59.544Z,3.10
2023-10-10T12:28:04.698Z,2.90
2023-10-10T12:32:16.900Z,3.08
2023-10-10T12:36:23.255Z,3.30
2023-10-10T12:40:25.189Z,3.45
2023-10-10T12:44:26.988Z,3.00
2023-10-10T12:48:32.032Z,3.00
2023-10-10T12:52:46.381Z,2.25
2023-10-10T12:56:56.342Z,2.50
2023-10-10T13:00:59.930Z,2.70
2023-10-10T13:05:02.848Z,2.60
2023-10-10T13:09:06.853Z,2.90
2023-10-10T13:13:08.804Z,2.60
2023-10-10T13:17:31.058Z,2.72
2023-10-10T13:21:36.289Z,2.95
2023-10-10T13:25:39.081Z,2.90
2023-10-10T13:29:41.024Z,2.55
2023-10-10T13:33:44.236Z,2.50
2023-10-10T13:37:46.083Z,2.70
2023-10-10T13:41:48.514Z,3.45
2023-10-10T13:45:51.669Z,2.92
2023-10-10T13:50:13.463Z,2.60
2023-10-10T13:54:17.403Z,2.75
2023-10-10T13:58:19.994Z,2.58
2023-10-10T14:02:26.403Z,2.67
2023-10-10T14:10:39.849Z,2.00
2023-10-10T14:14:45.969Z,2.00
2023-10-10T14:18:52.659Z,1.98
2023-10-10T14:27:00.557Z,2.38
2023-10-10T14:31:05.092Z,1.85
2023-10-10T14:35:09.407Z,2.30
2023-10-10T14:39:29.294Z,2.22
2023-10-10T14:43:34.222Z,2.40
2023-10-10T14:47:37.412Z,2.78
2023-10-10T14:51:39.676Z,2.20
2023-10-10T14:55:45.748Z,2.33
2023-10-10T14:59:48.024Z,2.03
2023-10-10T15:03:51.564Z,2.67
2023-10-10T15:07:54.982Z,2.85
2023-10-10T15:11:59.882Z,3.30
2023-10-10T15:16:02.160Z,2.85
2023-10-10T15:20:07.246Z,7.32
2023-10-10T15:24:12.947Z,3.30
2023-10-10T15:28:18.027Z,6.25
2023-10-10T15:32:21.167Z,6.70
2023-10-10T15:36:23.139Z,5.65
2023-10-10T15:40:24.944Z,5.30
2023-10-10T15:44:28.493Z,4.03
2023-10-10T15:48:30.870Z,3.25
2023-10-10T15:52:35.007Z,2.92
2023-10-10T15:56:37.697Z,3.10
2023-10-10T16:00:40.682Z,3.67
2023-10-10T16:04:45.181Z,3.10
2023-10-10T16:08:50.821Z,3.85
2023-10-10T16:12:52.740Z,3.15
2023-10-10T16:16:56.254Z,2.80
2023-10-10T16:20:58.669Z,2.63
2023-10-10T16:25:01.069Z,3.20
2023-10-10T16:29:06.946Z,3.28
2023-10-10T16:33:10.701Z,2.70
2023-10-10T16:37:16.118Z,2.25
2023-10-10T16:41:23.820Z,2.05
2023-10-10T16:45:26.375Z,2.25
2023-10-10T16:49:28.860Z,2.33
2023-10-10T16:53:31.595Z,2.38
2023-10-10T16:57:36.348Z,2.50
2023-10-10T17:01:39.152Z,2.70
2023-10-10T17:05:41.557Z,2.42
2023-10-10T17:09:44.005Z,2.22
2023-10-10T17:13:46.433Z,2.15
2023-10-10T17:17:49.466Z,2.22
2023-10-10T17:21:51.709Z,3.00
2023-10-10T17:25:56.691Z,2.75
2023-10-10T17:29:58.630Z,2.70
2023-10-10T17:34:02.699Z,2.47
2023-10-10T17:38:05.236Z,2.70
2023-10-10T17:42:08.060Z,3.22
2023-10-10T17:46:17.749Z,3.38
2023-10-10T17:50:23.198Z,3.00
2023-10-10T17:54:25.386Z,3.00
2023-10-10T17:58:27.915Z,2.92
2023-10-10T18:02:33.279Z,2.38
2023-10-10T18:06:36.304Z,2.38
2023-10-10T18:10:38.354Z,2.15
2023-10-10T18:14:41.648Z,2.10
2023-10-10T18:18:44.614Z,2.60
2023-10-10T18:22:47.546Z,2.95
2023-10-10T18:26:50.363Z,2.22
2023-10-10T18:30:52.883Z,2.40
2023-10-10T18:34:55.082Z,2.33
2023-10-10T18:38:58.987Z,3.10
2023-10-10T18:43:15.334Z,4.05
2023-10-10T18:47:17.738Z,2.72
2023-10-10T18:51:20.051Z,2.80
2023-10-10T18:55:26.535Z,2.92
2023-10-10T18:59:29.304Z,2.70
2023-10-10T19:03:31.524Z,2.58
2023-10-10T19:07:35.994Z,3.10
2023-10-10T19:11:38.185Z,2.55
2023-10-10T19:15:40.453Z,2.97
2023-10-10T19:19:43.288Z,2.65
2023-10-10T19:23:50.625Z,2.88
2023-10-10T19:32:00.459Z,3.03
2023-10-10T19:36:02.376Z,2.45
2023-10-10T19:40:10.450Z,2.65
2023-10-10T19:44:16.126Z,2.28
2023-10-10T19:48:18.607Z,2.80
2023-10-10T19:52:20.489Z,2.72
2023-10-10T19:56:22.487Z,2.75
2023-10-10T20:00:25.438Z,2.67
2023-10-10T20:04:27.605Z,2.70
2023-10-10T20:08:30.084Z,2.20
2023-10-10T20:12:32.488Z,3.00
2023-10-10T20:16:34.879Z,3.38
2023-10-10T20:20:40.835Z,3.08
2023-10-10T20:24:43.142Z,3.42
2023-10-10T20:28:45.078Z,3.35
2023-10-10T20:32:54.641Z,2.90
2023-10-10T20:36:57.557Z,3.60
2023-10-10T20:41:01.407Z,3.50
2023-10-10T20:45:04.194Z,3.40
2023-10-10T20:49:08.786Z,3.60
2023-10-10T20:53:10.990Z,2.67
2023-10-10T20:57:13.000Z,3.63
2023-10-10T21:01:15.259Z,3.05
2023-10-10T21:05:19.029Z,3.53
2023-10-10T21:09:22.290Z,2.60
2023-10-10T21:13:26.678Z,3.03
2023-10-10T21:17:29.331Z,3.10
2023-10-10T21:21:31.149Z,2.97
2023-10-10T21:25:33.193Z,3.25
2023-10-10T21:29:34.992Z,2.75
2023-10-10T21:33:42.525Z,2.58
2023-10-10T21:37:45.367Z,3.47
2023-10-10T21:41:47.687Z,3.17
2023-10-10T21:45:50.786Z,3.00
2023-10-10T21:49:52.852Z,3.30
2023-10-10T21:53:54.804Z,3.13
2023-10-10T21:57:57.260Z,2.90
2023-10-10T22:01:59.931Z,3.25
2023-10-10T22:06:02.334Z,3.53
2023-10-10T22:10:08.491Z,3.33
2023-10-10T22:14:13.930Z,3.15
2023-10-10T22:18:15.859Z,3.28
2023-10-10T22:22:18.189Z,2.90
2023-10-10T22:26:21.752Z,3.42
2023-10-10T22:30:28.190Z,3.67
2023-10-10T22:34:29.998Z,3.28
2023-10-10T22:38:33.084Z,2.83
2023-10-10T22:42:35.530Z,3.10
2023-10-10T22:46:37.947Z,3.35
2023-10-10T22:50:41.978Z,2.80
2023-10-10T22:54:44.181Z,2.88
2023-10-10T22:58:46.554Z,2.95
2023-10-10T23:02:51.433Z,2.85
2023-10-10T23:06:54.132Z,3.03
2023-10-10T23:10:57.049Z,2.80
2023-10-10T23:14:59.513Z,2.90
2023-10-10T23:19:01.404Z,3.10
2023-10-10T23:23:04.188Z,3.03
2023-10-10T23:27:08.064Z,2.53
2023-10-10T23:31:10.151Z,3.50
2023-10-10T23:35:12.559Z,3.38
2023-10-10T23:39:18.019Z,3.50
2023-10-10T23:43:22.249Z,3.55
2023-10-10T23:47:25.515Z,3.50
2023-10-10T23:51:28.047Z,2.78
2023-10-10T23:55:30.498Z,2.50
2023-10-10T23:59:32.759Z,3.13
